This is the latest recevied weather packets stored in our database for station/object KC7KGF. If no packets are shown the sender has not sent any weather packets the latest 10 day(s).
| Time | Temp. | Humidity | Pressure | Rain* | Wind** | Luminosity | Snow |
|---|---|---|---|---|---|---|---|
| 1777606544 | 17.78° C | 22% | 1013.4 hPa | 0 mm | - | - | - |
| 1777604732 | 18.33° C | 21% | 1013.1 hPa | 0 mm | - | - | - |
| 1777602928 | 18.89° C | 21% | 1012.8 hPa | 0 mm | - | - | - |
| 1777601135 | 20° C | 20% | 1012.3 hPa | 0 mm | - | - | - |
| 1777599331 | 20.56° C | 20% | 1012.1 hPa | 0 mm | - | - | - |
| 1777597539 | 21.11° C | 19% | 1011.9 hPa | 0 mm | - | - | - |
| 1777595733 | 21.67° C | 19% | 1012.2 hPa | 0 mm | - | - | - |
| 1777593938 | 21.11° C | 19% | 1012.2 hPa | 0 mm | - | - | - |
| 1777592134 | 21.67° C | 18% | 1012.3 hPa | 0 mm | - | - | - |
| 1777590340 | 22.22° C | 18% | 1012.6 hPa | 0 mm | - | - | - |
| 1777588539 | 22.22° C | 17% | 1013 hPa | 0 mm | - | - | - |
| 1777586727 | 23.33° C | 17% | 1013.3 hPa | 0 mm | - | - | - |
| 1777584941 | 24.44° C | 16% | 1013.7 hPa | 0 mm | - | - | - |
| 1777583129 | 25.56° C | 14% | 1013.9 hPa | 0 mm | - | - | - |
| 1777581353 | 24.44° C | 15% | 1014.2 hPa | 0 mm | - | - | - |
| 1777579539 | 24.44° C | 14% | 1014.4 hPa | 0 mm | - | - | - |
| 1777577741 | 23.33° C | 15% | 1015.1 hPa | 0 mm | - | - | - |
| 1777575937 | 22.22° C | 17% | 1015.2 hPa | 0 mm | - | - | - |
| 1777574142 | 22.22° C | 15% | 1015.6 hPa | 0 mm | - | - | - |
| 1777572333 | 21.67° C | 16% | 1016.3 hPa | 0 mm | - | - | - |
| 1777570532 | 21.11° C | 16% | 1016.3 hPa | 0 mm | - | - | - |
| 1777568740 | 20.56° C | 17% | 1016.7 hPa | 0 mm | - | - | - |
| 1777566940 | 19.44° C | 18% | 1016.7 hPa | 0 mm | - | - | - |
| 1777565129 | 19.44° C | 18% | 1017 hPa | 0 mm | - | - | - |
| 1777563333 | 18.33° C | 22% | 1017 hPa | 0 mm | - | - | - |
* Rain latest hour (hover to see other rain measurements)
** Current wind speed in m/s (hover to see current wind gust speed)